createdAt,value
2022-09-23T00:01:12.571Z,13.05
2022-09-23T00:04:18.265Z,13.08
2022-09-23T00:07:24.251Z,13.30
2022-09-23T00:10:33.512Z,13.20
2022-09-23T00:13:41.937Z,13.07
2022-09-23T00:16:47.703Z,12.95
2022-09-23T00:19:54.580Z,12.98
2022-09-23T00:23:00.866Z,13.04
2022-09-23T00:26:08.995Z,12.93
2022-09-23T00:29:16.320Z,13.02
2022-09-23T00:32:21.668Z,13.04
2022-09-23T00:35:27.620Z,12.98
2022-09-23T00:38:34.484Z,12.95
2022-09-23T00:41:40.909Z,12.41
2022-09-23T00:44:58.165Z,12.52
2022-09-23T00:48:05.352Z,12.41
2022-09-23T00:51:18.364Z,12.57
2022-09-23T00:54:27.918Z,12.60
2022-09-23T00:57:35.332Z,12.62
2022-09-23T01:00:42.394Z,12.51
2022-09-23T01:03:49.269Z,12.55
2022-09-23T01:06:54.752Z,12.71
2022-09-23T01:10:02.056Z,12.61
2022-09-23T01:13:32.640Z,12.60
2022-09-23T01:16:43.391Z,12.37
2022-09-23T01:20:06.544Z,12.41
2022-09-23T01:23:36.503Z,12.60
2022-09-23T01:27:15.976Z,12.52
2022-09-23T01:31:10.159Z,12.45
2022-09-23T01:34:42.605Z,12.48
2022-09-23T01:37:53.633Z,12.49
2022-09-23T01:41:25.719Z,12.45
2022-09-23T01:44:47.970Z,12.39
2022-09-23T01:48:14.097Z,12.47
2022-09-23T01:51:52.936Z,12.33
2022-09-23T01:55:25.230Z,12.53
2022-09-23T01:58:45.954Z,12.50
2022-09-23T02:02:14.483Z,12.40
2022-09-23T02:05:26.424Z,12.42
2022-09-23T02:08:38.786Z,12.41
2022-09-23T02:11:48.641Z,12.43
2022-09-23T02:15:03.655Z,12.41
2022-09-23T02:18:17.122Z,12.49
2022-09-23T02:21:27.012Z,12.51
2022-09-23T02:24:36.949Z,12.37
2022-09-23T02:27:48.034Z,12.46
2022-09-23T02:30:59.616Z,12.32
2022-09-23T02:34:32.522Z,11.95
2022-09-23T02:38:02.993Z,12.24
2022-09-23T02:41:18.594Z,12.16
2022-09-23T02:44:24.615Z,12.12
2022-09-23T02:47:35.504Z,12.31
2022-09-23T02:50:41.177Z,12.21
2022-09-23T02:53:48.091Z,12.35
2022-09-23T02:56:53.722Z,12.15
2022-09-23T02:59:59.919Z,12.16
2022-09-23T03:03:36.825Z,12.13
2022-09-23T03:07:00.124Z,12.03
2022-09-23T03:10:14.934Z,11.85
2022-09-23T03:13:38.843Z,11.81
2022-09-23T03:16:53.417Z,11.82
2022-09-23T03:20:09.582Z,11.76
2022-09-23T03:23:19.185Z,11.80
2022-09-23T03:26:31.678Z,11.71
2022-09-23T03:29:37.394Z,11.66
2022-09-23T03:32:45.860Z,11.66
2022-09-23T03:36:13.847Z,11.68
2022-09-23T03:39:28.537Z,11.60
2022-09-23T03:42:35.767Z,11.56
2022-09-23T03:45:42.989Z,11.53
2022-09-23T03:48:49.689Z,11.37
2022-09-23T03:51:56.444Z,11.49
2022-09-23T03:55:02.132Z,11.48
2022-09-23T03:58:08.409Z,11.56
2022-09-23T04:01:15.073Z,11.47
2022-09-23T04:04:21.217Z,11.35
2022-09-23T04:07:27.407Z,11.28
2022-09-23T04:10:32.984Z,11.28
2022-09-23T04:13:38.529Z,11.13
2022-09-23T04:16:44.723Z,11.23
2022-09-23T04:19:50.545Z,11.30
2022-09-23T04:22:57.023Z,11.30
2022-09-23T04:26:02.404Z,11.30
2022-09-23T04:29:08.393Z,11.09
2022-09-23T04:32:13.731Z,11.15
2022-09-23T04:35:19.327Z,11.17
2022-09-23T04:38:25.271Z,11.18
2022-09-23T04:41:30.645Z,11.06
2022-09-23T04:44:36.081Z,11.05
2022-09-23T04:47:41.820Z,11.20
2022-09-23T04:50:49.096Z,10.99
2022-09-23T04:53:55.483Z,10.82
2022-09-23T04:57:01.354Z,10.75
2022-09-23T05:00:07.993Z,10.98
2022-09-23T05:03:14.389Z,11.19
2022-09-23T05:06:20.859Z,11.08
2022-09-23T05:09:26.434Z,11.24
2022-09-23T05:12:31.969Z,10.89
2022-09-23T05:15:37.522Z,10.91
2022-09-23T05:18:45.378Z,11.14
2022-09-23T05:21:50.756Z,10.78
2022-09-23T05:24:56.332Z,10.50
2022-09-23T05:28:02.253Z,10.85
2022-09-23T05:31:20.029Z,10.90
2022-09-23T05:34:26.016Z,11.22
2022-09-23T05:37:33.354Z,11.26
2022-09-23T05:40:38.715Z,11.14
2022-09-23T05:43:44.227Z,11.28
2022-09-23T05:46:50.326Z,11.44
2022-09-23T05:50:00.061Z,11.40
2022-09-23T05:53:06.268Z,11.41
2022-09-23T05:56:22.678Z,11.37
2022-09-23T05:59:28.173Z,11.65
2022-09-23T06:02:33.591Z,11.91
2022-09-23T06:05:39.059Z,12.01
2022-09-23T06:08:48.862Z,12.20
2022-09-23T06:11:54.412Z,12.38
2022-09-23T06:15:01.484Z,12.45
2022-09-23T06:18:07.470Z,12.52
2022-09-23T06:21:17.919Z,12.58
2022-09-23T06:24:28.553Z,12.72
2022-09-23T06:27:36.389Z,12.80
2022-09-23T06:30:43.002Z,12.91
2022-09-23T06:33:50.845Z,12.99
2022-09-23T06:36:58.956Z,13.13
2022-09-23T06:40:07.139Z,13.28
2022-09-23T06:43:12.905Z,13.33
2022-09-23T06:46:18.392Z,13.44
2022-09-23T06:49:23.664Z,13.63
2022-09-23T06:52:29.382Z,13.85
2022-09-23T06:55:35.457Z,14.04
2022-09-23T06:58:41.317Z,14.12
2022-09-23T07:01:48.584Z,14.21
2022-09-23T07:04:57.820Z,14.42
2022-09-23T07:08:03.832Z,14.49
2022-09-23T07:11:12.642Z,14.47
2022-09-23T07:14:18.364Z,14.62
2022-09-23T07:17:27.317Z,14.77
2022-09-23T07:20:33.211Z,14.84
2022-09-23T07:23:39.119Z,14.97
2022-09-23T07:26:45.764Z,14.94
2022-09-23T07:29:52.346Z,14.99
2022-09-23T07:32:57.979Z,14.97
2022-09-23T07:36:12.814Z,15.11
2022-09-23T07:39:18.525Z,15.16
2022-09-23T07:42:24.334Z,15.23
2022-09-23T07:45:31.416Z,15.34
2022-09-23T07:48:38.442Z,15.21
2022-09-23T07:51:46.703Z,15.40
2022-09-23T07:54:51.973Z,15.53
2022-09-23T07:57:57.764Z,15.50
2022-09-23T08:01:05.990Z,15.64
2022-09-23T08:04:16.191Z,15.75
2022-09-23T08:07:22.179Z,15.83
2022-09-23T08:10:27.588Z,16.04
2022-09-23T08:13:33.918Z,16.01
2022-09-23T08:16:40.690Z,16.04
2022-09-23T08:19:49.252Z,16.07
2022-09-23T08:22:55.025Z,16.35
2022-09-23T08:26:03.103Z,16.46
2022-09-23T08:29:10.685Z,16.54
2022-09-23T08:32:16.429Z,16.51
2022-09-23T08:35:22.614Z,16.60
2022-09-23T08:38:29.183Z,16.58
2022-09-23T08:41:54.879Z,16.88
2022-09-23T08:45:08.542Z,16.91
2022-09-23T08:48:27.737Z,16.94
2022-09-23T08:51:47.015Z,17.07
2022-09-23T08:54:55.470Z,17.07
2022-09-23T08:58:25.710Z,17.15
2022-09-23T09:01:47.584Z,17.20
2022-09-23T09:05:01.916Z,17.18
2022-09-23T09:08:09.278Z,17.32
2022-09-23T09:11:16.815Z,17.25
2022-09-23T09:14:42.998Z,17.64
2022-09-23T09:18:02.674Z,17.49
2022-09-23T09:21:13.470Z,17.71
2022-09-23T09:24:25.262Z,17.75
2022-09-23T09:27:31.218Z,17.90
2022-09-23T09:30:37.484Z,17.96
2022-09-23T09:33:58.769Z,18.14
2022-09-23T09:37:14.299Z,17.99
2022-09-23T09:40:21.063Z,18.06
2022-09-23T09:43:26.914Z,18.13
2022-09-23T09:46:55.777Z,18.37
2022-09-23T09:50:11.415Z,18.34
2022-09-23T09:53:22.842Z,18.40
2022-09-23T09:56:35.434Z,18.42
2022-09-23T09:59:44.506Z,18.37
2022-09-23T10:02:55.379Z,18.34
2022-09-23T10:06:22.745Z,18.73
2022-09-23T10:09:34.935Z,18.85
2022-09-23T10:12:49.473Z,18.75
2022-09-23T10:15:57.307Z,18.61
2022-09-23T10:19:04.994Z,18.79
2022-09-23T10:22:30.447Z,18.83
2022-09-23T10:25:37.299Z,18.49
2022-09-23T10:28:51.047Z,18.89
2022-09-23T10:32:28.845Z,19.23
2022-09-23T10:35:35.371Z,18.98
2022-09-23T10:38:42.815Z,19.12
2022-09-23T10:42:31.518Z,18.91
2022-09-23T10:45:59.522Z,19.12
2022-09-23T10:49:36.092Z,19.16
2022-09-23T10:53:10.523Z,19.42
2022-09-23T10:56:35.925Z,19.45
2022-09-23T11:00:02.718Z,19.52
2022-09-23T11:03:36.429Z,19.11
2022-09-23T11:07:07.828Z,19.40
2022-09-23T11:10:45.107Z,19.34
2022-09-23T11:14:17.760Z,19.25
2022-09-23T11:17:57.060Z,19.25
2022-09-23T11:21:07.661Z,19.23
2022-09-23T11:24:25.132Z,19.49
2022-09-23T11:27:39.114Z,19.53
2022-09-23T11:30:57.907Z,19.58
2022-09-23T11:34:39.155Z,19.82
2022-09-23T11:38:11.718Z,19.83
2022-09-23T11:41:26.372Z,20.02
2022-09-23T11:44:33.987Z,20.11
2022-09-23T11:48:11.422Z,19.98
2022-09-23T11:51:29.898Z,19.88
2022-09-23T11:54:47.530Z,20.06
2022-09-23T11:58:25.505Z,19.79
2022-09-23T12:01:37.920Z,20.05
2022-09-23T12:05:09.607Z,20.26
2022-09-23T12:08:27.317Z,20.32
2022-09-23T12:11:46.864Z,20.31
2022-09-23T12:15:14.115Z,20.34
2022-09-23T12:18:44.881Z,20.39
2022-09-23T12:22:27.343Z,20.47
2022-09-23T12:25:56.713Z,20.66
2022-09-23T12:29:05.957Z,20.39
2022-09-23T12:32:19.042Z,20.46
2022-09-23T12:35:46.174Z,20.49
2022-09-23T12:38:53.741Z,20.85
2022-09-23T12:42:05.333Z,20.84
2022-09-23T12:45:35.277Z,20.70
2022-09-23T12:49:02.423Z,20.87
2022-09-23T12:52:16.911Z,20.86
2022-09-23T12:55:22.356Z,21.22
2022-09-23T12:58:48.591Z,21.16
2022-09-23T13:01:55.109Z,20.98
2022-09-23T13:05:30.993Z,20.91
2022-09-23T13:08:42.656Z,20.92
2022-09-23T13:11:49.109Z,20.89
2022-09-23T13:15:06.083Z,20.73
2022-09-23T13:18:20.797Z,20.29
2022-09-23T13:21:45.314Z,21.06
2022-09-23T13:24:55.981Z,20.91
2022-09-23T13:28:04.289Z,21.06
2022-09-23T13:31:18.227Z,21.21
2022-09-23T13:34:29.249Z,21.18
2022-09-23T13:37:37.617Z,21.03
2022-09-23T13:40:45.649Z,20.93
2022-09-23T13:43:59.433Z,21.07
2022-09-23T13:47:04.947Z,21.16
2022-09-23T13:50:25.168Z,20.82
2022-09-23T13:53:33.008Z,20.90
2022-09-23T13:56:49.563Z,20.94
2022-09-23T14:00:00.651Z,21.17
2022-09-23T14:03:19.298Z,21.07
2022-09-23T14:06:27.629Z,20.95
2022-09-23T14:09:38.301Z,20.91
2022-09-23T14:12:44.186Z,20.55
2022-09-23T14:15:51.101Z,20.43
2022-09-23T14:18:59.840Z,20.39
2022-09-23T14:22:08.193Z,20.66
2022-09-23T14:25:19.246Z,20.59
2022-09-23T14:28:27.692Z,20.69
2022-09-23T14:31:33.769Z,20.85
2022-09-23T14:35:06.984Z,20.72
2022-09-23T14:38:31.495Z,20.95
2022-09-23T14:41:41.474Z,20.94
2022-09-23T14:44:50.978Z,21.09
2022-09-23T14:48:05.137Z,20.83
2022-09-23T14:51:14.671Z,20.52
2022-09-23T14:54:24.571Z,20.56
2022-09-23T14:57:31.763Z,20.60
2022-09-23T15:00:37.330Z,20.48
2022-09-23T15:03:48.785Z,20.58
2022-09-23T15:06:57.731Z,20.58
2022-09-23T15:10:07.479Z,20.37
2022-09-23T15:13:20.190Z,20.44
2022-09-23T15:16:28.317Z,20.56
2022-09-23T15:19:36.391Z,20.45
2022-09-23T15:22:50.982Z,20.62
2022-09-23T15:25:56.389Z,20.75
2022-09-23T15:29:02.366Z,20.76
2022-09-23T15:32:08.938Z,20.66
2022-09-23T15:35:19.368Z,20.56
2022-09-23T15:38:27.166Z,20.62
2022-09-23T15:41:35.917Z,20.66
2022-09-23T15:44:41.403Z,20.57
2022-09-23T15:47:48.345Z,20.36
2022-09-23T15:50:54.981Z,20.27
2022-09-23T15:54:00.649Z,20.25
2022-09-23T15:57:06.110Z,20.15
2022-09-23T16:00:13.695Z,20.13
2022-09-23T16:03:22.350Z,20.13
2022-09-23T16:06:28.268Z,19.94
2022-09-23T16:09:33.241Z,19.95
2022-09-23T16:12:38.468Z,19.92
2022-09-23T16:15:44.549Z,19.84
2022-09-23T16:18:53.375Z,19.75
2022-09-23T16:21:58.828Z,19.81
2022-09-23T16:25:06.541Z,19.57
2022-09-23T16:28:12.018Z,19.58
2022-09-23T16:31:18.566Z,19.45
2022-09-23T16:34:25.297Z,19.33
2022-09-23T16:37:30.991Z,19.17
2022-09-23T16:40:36.434Z,19.12
2022-09-23T16:43:42.277Z,19.11
2022-09-23T16:46:48.082Z,18.96
2022-09-23T16:49:53.409Z,18.95
2022-09-23T16:52:58.836Z,18.80
2022-09-23T16:56:09.845Z,18.76
2022-09-23T16:59:16.661Z,18.72
2022-09-23T17:02:40.720Z,18.62
2022-09-23T17:05:47.023Z,18.55
2022-09-23T17:08:52.624Z,18.39
2022-09-23T17:12:07.654Z,18.36
2022-09-23T17:15:13.635Z,18.27
2022-09-23T17:18:21.333Z,18.22
2022-09-23T17:21:28.171Z,18.16
2022-09-23T17:24:33.789Z,18.04
2022-09-23T17:27:39.217Z,17.98
2022-09-23T17:30:44.687Z,17.85
2022-09-23T17:33:50.821Z,17.82
2022-09-23T17:36:56.096Z,17.61
2022-09-23T17:40:01.670Z,17.62
2022-09-23T17:43:08.346Z,17.68
2022-09-23T17:46:19.064Z,17.65
2022-09-23T17:49:24.707Z,17.55
2022-09-23T17:52:30.077Z,17.52
2022-09-23T17:55:36.338Z,17.39
2022-09-23T17:58:43.213Z,17.33
2022-09-23T18:01:48.895Z,17.22
2022-09-23T18:04:56.738Z,17.13
2022-09-23T18:08:05.988Z,17.04
2022-09-23T18:11:22.138Z,17.08
2022-09-23T18:14:32.056Z,17.10
2022-09-23T18:17:40.083Z,16.99
2022-09-23T18:20:45.655Z,16.86
2022-09-23T18:23:51.306Z,16.86
2022-09-23T18:27:00.176Z,16.78
2022-09-23T18:30:23.071Z,16.84
2022-09-23T18:33:43.318Z,16.88
2022-09-23T18:37:16.711Z,16.93
2022-09-23T18:40:51.550Z,16.79
2022-09-23T18:44:23.138Z,16.88
2022-09-23T18:48:25.265Z,16.83
2022-09-23T18:51:59.387Z,16.87
2022-09-23T18:55:10.152Z,16.93
2022-09-23T18:58:19.065Z,17.00
2022-09-23T19:01:30.237Z,16.88
2022-09-23T19:04:40.589Z,16.85
2022-09-23T19:07:54.632Z,16.86
2022-09-23T19:11:37.250Z,16.95
2022-09-23T19:15:03.877Z,16.93
2022-09-23T19:18:17.201Z,16.79
2022-09-23T19:26:19.405Z,17.09
2022-09-23T19:33:21.292Z,17.11
2022-09-23T19:59:56.912Z,16.28
2022-09-23T20:06:48.133Z,16.28
2022-09-23T20:09:57.388Z,16.17
2022-09-23T20:13:06.693Z,16.32
2022-09-23T20:16:18.095Z,16.31
2022-09-23T20:19:25.526Z,16.29
2022-09-23T20:22:38.993Z,16.30
2022-09-23T20:26:14.650Z,16.30
2022-09-23T20:29:20.933Z,16.30
2022-09-23T20:32:28.935Z,16.30
2022-09-23T20:35:42.800Z,16.15
2022-09-23T20:38:57.614Z,16.11
2022-09-23T20:42:05.704Z,16.12
2022-09-23T20:45:24.980Z,16.01
2022-09-23T20:48:48.164Z,15.97
2022-09-23T20:51:57.065Z,15.86
2022-09-23T20:55:03.590Z,15.86
2022-09-23T20:58:09.374Z,15.70
2022-09-23T21:01:16.167Z,15.69
2022-09-23T21:04:22.877Z,15.74
2022-09-23T21:07:28.564Z,15.82
2022-09-23T21:10:33.740Z,15.76
2022-09-23T21:13:39.913Z,15.78
2022-09-23T21:16:45.456Z,15.81
2022-09-23T21:19:51.096Z,15.75
2022-09-23T21:22:57.703Z,15.75
2022-09-23T21:26:07.154Z,15.65
2022-09-23T21:29:14.056Z,15.65
2022-09-23T21:32:19.843Z,15.63
2022-09-23T21:35:25.435Z,15.64
2022-09-23T21:38:34.201Z,15.57
2022-09-23T21:41:40.262Z,15.48
2022-09-23T21:44:45.973Z,15.43
2022-09-23T21:47:52.379Z,15.23
2022-09-23T21:51:00.584Z,15.16
2022-09-23T21:54:11.488Z,15.33
2022-09-23T21:57:17.301Z,15.26
2022-09-23T22:00:23.952Z,15.37
2022-09-23T22:03:29.997Z,15.36
2022-09-23T22:06:38.405Z,15.32
2022-09-23T22:09:47.340Z,15.28
2022-09-23T22:12:52.762Z,15.15
2022-09-23T22:16:06.331Z,15.23
2022-09-23T22:19:13.837Z,15.17
2022-09-23T22:22:19.301Z,15.28
2022-09-23T22:25:25.278Z,15.17
2022-09-23T22:28:51.414Z,15.25
2022-09-23T22:32:16.353Z,15.16
2022-09-23T22:35:22.049Z,15.27
2022-09-23T22:38:27.863Z,15.27
2022-09-23T22:41:33.957Z,15.27
2022-09-23T22:44:39.727Z,15.10
2022-09-23T22:47:46.071Z,15.13
2022-09-23T22:50:51.960Z,15.26
2022-09-23T22:53:57.342Z,15.18
2022-09-23T22:57:07.141Z,15.24
2022-09-23T23:00:13.100Z,15.36
2022-09-23T23:03:20.675Z,15.41
2022-09-23T23:06:26.457Z,15.46
2022-09-23T23:09:32.283Z,15.42
2022-09-23T23:12:38.888Z,15.42
2022-09-23T23:15:44.681Z,15.31
2022-09-23T23:18:50.404Z,15.22
2022-09-23T23:21:55.932Z,15.26
2022-09-23T23:25:01.050Z,15.34
2022-09-23T23:28:06.178Z,15.38
2022-09-23T23:31:14.935Z,15.17
2022-09-23T23:34:21.754Z,15.23
2022-09-23T23:37:29.562Z,15.30
2022-09-23T23:40:37.914Z,15.09
2022-09-23T23:43:46.378Z,15.13
2022-09-23T23:46:53.102Z,15.22
2022-09-23T23:49:58.650Z,15.30
2022-09-23T23:53:05.780Z,15.28
2022-09-23T23:56:13.816Z,15.27
2022-09-23T23:59:20.377Z,15.26
